sensor_id;sensor_type;location;lat;lon;timestamp;temperature;humidity
16663;DHT22;8445;51.270;9.434;2024-01-30T00:01:48;3.50;74.80
16663;DHT22;8445;51.270;9.434;2024-01-30T00:04:15;3.50;74.70
16663;DHT22;8445;51.270;9.434;2024-01-30T00:06:44;3.40;74.70
16663;DHT22;8445;51.270;9.434;2024-01-30T00:09:11;3.30;74.80
16663;DHT22;8445;51.270;9.434;2024-01-30T00:11:39;3.30;75.50
16663;DHT22;8445;51.270;9.434;2024-01-30T00:14:06;3.20;75.70
16663;DHT22;8445;51.270;9.434;2024-01-30T00:16:35;3.10;75.70
16663;DHT22;8445;51.270;9.434;2024-01-30T00:19:02;3.10;75.60
16663;DHT22;8445;51.270;9.434;2024-01-30T00:21:31;3.10;75.60
16663;DHT22;8445;51.270;9.434;2024-01-30T00:23:59;3.00;75.90
16663;DHT22;8445;51.270;9.434;2024-01-30T00:26:25;3.00;76.30
16663;DHT22;8445;51.270;9.434;2024-01-30T00:28:53;3.00;76.10
16663;DHT22;8445;51.270;9.434;2024-01-30T00:31:20;2.90;76.20
16663;DHT22;8445;51.270;9.434;2024-01-30T00:33:47;2.90;76.60
16663;DHT22;8445;51.270;9.434;2024-01-30T00:36:14;2.80;76.40
16663;DHT22;8445;51.270;9.434;2024-01-30T00:38:41;2.90;77.00
16663;DHT22;8445;51.270;9.434;2024-01-30T00:41:09;2.80;76.70
16663;DHT22;8445;51.270;9.434;2024-01-30T00:43:37;2.80;76.90
16663;DHT22;8445;51.270;9.434;2024-01-30T00:46:04;2.80;76.60
16663;DHT22;8445;51.270;9.434;2024-01-30T00:48:31;2.70;76.80
16663;DHT22;8445;51.270;9.434;2024-01-30T00:50:58;2.70;77.00
16663;DHT22;8445;51.270;9.434;2024-01-30T00:53:29;2.70;76.80
16663;DHT22;8445;51.270;9.434;2024-01-30T00:55:57;2.70;77.10
16663;DHT22;8445;51.270;9.434;2024-01-30T00:58:24;2.70;77.10
16663;DHT22;8445;51.270;9.434;2024-01-30T01:00:51;2.70;77.10
16663;DHT22;8445;51.270;9.434;2024-01-30T01:03:18;2.70;77.00
16663;DHT22;8445;51.270;9.434;2024-01-30T01:05:46;2.70;76.80
16663;DHT22;8445;51.270;9.434;2024-01-30T01:08:13;2.70;76.90
16663;DHT22;8445;51.270;9.434;2024-01-30T01:10:41;2.60;77.20
16663;DHT22;8445;51.270;9.434;2024-01-30T01:13:14;2.60;77.20
16663;DHT22;8445;51.270;9.434;2024-01-30T01:15:42;2.60;76.80
16663;DHT22;8445;51.270;9.434;2024-01-30T01:18:11;2.50;76.60
16663;DHT22;8445;51.270;9.434;2024-01-30T01:20:38;2.50;76.60
16663;DHT22;8445;51.270;9.434;2024-01-30T01:23:05;2.50;77.50
16663;DHT22;8445;51.270;9.434;2024-01-30T01:25:32;2.50;77.90
16663;DHT22;8445;51.270;9.434;2024-01-30T01:28:01;2.50;77.80
16663;DHT22;8445;51.270;9.434;2024-01-30T01:30:30;2.50;77.60
16663;DHT22;8445;51.270;9.434;2024-01-30T01:32:57;2.50;77.40
16663;DHT22;8445;51.270;9.434;2024-01-30T01:35:27;2.50;77.00
16663;DHT22;8445;51.270;9.434;2024-01-30T01:37:55;2.50;77.10
16663;DHT22;8445;51.270;9.434;2024-01-30T01:40:27;2.50;77.30
16663;DHT22;8445;51.270;9.434;2024-01-30T01:42:55;2.50;77.30
16663;DHT22;8445;51.270;9.434;2024-01-30T01:45:22;2.50;77.20
16663;DHT22;8445;51.270;9.434;2024-01-30T01:47:53;2.60;76.90
16663;DHT22;8445;51.270;9.434;2024-01-30T01:50:21;2.60;76.70
16663;DHT22;8445;51.270;9.434;2024-01-30T01:52:50;2.60;76.50
16663;DHT22;8445;51.270;9.434;2024-01-30T01:55:20;2.50;76.40
16663;DHT22;8445;51.270;9.434;2024-01-30T01:57:49;2.50;76.30
16663;DHT22;8445;51.270;9.434;2024-01-30T02:00:17;2.50;76.80
16663;DHT22;8445;51.270;9.434;2024-01-30T02:02:49;2.50;76.80
16663;DHT22;8445;51.270;9.434;2024-01-30T02:05:24;2.50;76.60
16663;DHT22;8445;51.270;9.434;2024-01-30T02:07:53;2.50;76.50
16663;DHT22;8445;51.270;9.434;2024-01-30T02:10:21;2.40;76.70
16663;DHT22;8445;51.270;9.434;2024-01-30T02:12:48;2.40;76.60
16663;DHT22;8445;51.270;9.434;2024-01-30T02:15:16;2.40;76.60
16663;DHT22;8445;51.270;9.434;2024-01-30T02:17:45;2.30;76.80
16663;DHT22;8445;51.270;9.434;2024-01-30T02:20:14;2.30;76.90
16663;DHT22;8445;51.270;9.434;2024-01-30T02:22:43;2.30;77.00
16663;DHT22;8445;51.270;9.434;2024-01-30T02:25:12;2.30;76.90
16663;DHT22;8445;51.270;9.434;2024-01-30T02:27:39;2.30;77.00
16663;DHT22;8445;51.270;9.434;2024-01-30T02:30:08;2.30;77.10
16663;DHT22;8445;51.270;9.434;2024-01-30T02:32:35;2.30;77.20
16663;DHT22;8445;51.270;9.434;2024-01-30T02:35:03;2.20;77.50
16663;DHT22;8445;51.270;9.434;2024-01-30T02:37:34;2.30;77.50
16663;DHT22;8445;51.270;9.434;2024-01-30T02:40:02;2.30;78.20
16663;DHT22;8445;51.270;9.434;2024-01-30T02:42:31;2.30;78.60
16663;DHT22;8445;51.270;9.434;2024-01-30T02:44:58;2.30;78.80
16663;DHT22;8445;51.270;9.434;2024-01-30T02:47:25;2.30;79.00
16663;DHT22;8445;51.270;9.434;2024-01-30T02:49:52;2.30;79.10
16663;DHT22;8445;51.270;9.434;2024-01-30T02:52:20;2.30;79.00
16663;DHT22;8445;51.270;9.434;2024-01-30T02:54:48;2.30;78.90
16663;DHT22;8445;51.270;9.434;2024-01-30T02:57:16;2.30;78.60
16663;DHT22;8445;51.270;9.434;2024-01-30T02:59:43;2.30;78.50
16663;DHT22;8445;51.270;9.434;2024-01-30T03:02:11;2.30;78.30
16663;DHT22;8445;51.270;9.434;2024-01-30T03:04:40;2.40;78.10
16663;DHT22;8445;51.270;9.434;2024-01-30T03:07:08;2.40;78.60
16663;DHT22;8445;51.270;9.434;2024-01-30T03:09:36;2.40;78.70
16663;DHT22;8445;51.270;9.434;2024-01-30T03:12:04;2.40;78.60
16663;DHT22;8445;51.270;9.434;2024-01-30T03:14:32;2.40;79.00
16663;DHT22;8445;51.270;9.434;2024-01-30T03:16:59;2.40;79.20
16663;DHT22;8445;51.270;9.434;2024-01-30T03:19:26;2.40;79.00
16663;DHT22;8445;51.270;9.434;2024-01-30T03:21:55;2.40;78.90
16663;DHT22;8445;51.270;9.434;2024-01-30T03:24:23;2.40;79.30
16663;DHT22;8445;51.270;9.434;2024-01-30T03:26:50;2.40;79.20
16663;DHT22;8445;51.270;9.434;2024-01-30T03:29:18;2.40;79.10
16663;DHT22;8445;51.270;9.434;2024-01-30T03:31:47;2.40;78.90
16663;DHT22;8445;51.270;9.434;2024-01-30T03:34:14;2.40;79.10
16663;DHT22;8445;51.270;9.434;2024-01-30T03:36:43;2.40;79.00
16663;DHT22;8445;51.270;9.434;2024-01-30T03:39:12;2.40;79.10
16663;DHT22;8445;51.270;9.434;2024-01-30T03:41:41;2.40;79.10
16663;DHT22;8445;51.270;9.434;2024-01-30T03:44:11;2.40;79.10
16663;DHT22;8445;51.270;9.434;2024-01-30T03:46:38;2.40;78.90
16663;DHT22;8445;51.270;9.434;2024-01-30T03:49:06;2.40;78.70
16663;DHT22;8445;51.270;9.434;2024-01-30T03:51:34;2.40;78.60
16663;DHT22;8445;51.270;9.434;2024-01-30T03:54:01;2.40;78.50
16663;DHT22;8445;51.270;9.434;2024-01-30T03:56:28;2.40;78.40
16663;DHT22;8445;51.270;9.434;2024-01-30T03:58:55;2.40;78.20
16663;DHT22;8445;51.270;9.434;2024-01-30T04:01:23;2.40;78.20
16663;DHT22;8445;51.270;9.434;2024-01-30T04:03:50;2.40;78.30
16663;DHT22;8445;51.270;9.434;2024-01-30T04:06:17;2.40;78.30
16663;DHT22;8445;51.270;9.434;2024-01-30T04:08:49;2.40;78.20
16663;DHT22;8445;51.270;9.434;2024-01-30T04:11:18;2.40;78.20
16663;DHT22;8445;51.270;9.434;2024-01-30T04:13:53;2.40;78.30
16663;DHT22;8445;51.270;9.434;2024-01-30T04:16:21;2.50;78.40
16663;DHT22;8445;51.270;9.434;2024-01-30T04:18:49;2.50;78.50
16663;DHT22;8445;51.270;9.434;2024-01-30T04:21:21;2.50;78.50
16663;DHT22;8445;51.270;9.434;2024-01-30T04:23:50;2.50;78.60
16663;DHT22;8445;51.270;9.434;2024-01-30T04:26:17;2.50;78.70
16663;DHT22;8445;51.270;9.434;2024-01-30T04:28:45;2.50;78.90
16663;DHT22;8445;51.270;9.434;2024-01-30T04:31:12;2.60;78.80
16663;DHT22;8445;51.270;9.434;2024-01-30T04:33:39;2.70;78.60
16663;DHT22;8445;51.270;9.434;2024-01-30T04:36:12;2.70;78.60
16663;DHT22;8445;51.270;9.434;2024-01-30T04:38:41;2.70;78.50
16663;DHT22;8445;51.270;9.434;2024-01-30T04:41:08;2.70;78.50
16663;DHT22;8445;51.270;9.434;2024-01-30T04:43:37;2.70;78.30
16663;DHT22;8445;51.270;9.434;2024-01-30T04:46:09;2.70;78.40
16663;DHT22;8445;51.270;9.434;2024-01-30T04:48:36;2.70;78.40
16663;DHT22;8445;51.270;9.434;2024-01-30T04:51:07;2.70;78.50
16663;DHT22;8445;51.270;9.434;2024-01-30T04:53:36;2.70;78.40
16663;DHT22;8445;51.270;9.434;2024-01-30T04:56:04;2.70;78.50
16663;DHT22;8445;51.270;9.434;2024-01-30T04:58:36;2.70;78.40
16663;DHT22;8445;51.270;9.434;2024-01-30T05:01:03;2.60;78.50
16663;DHT22;8445;51.270;9.434;2024-01-30T05:03:33;2.60;78.60
16663;DHT22;8445;51.270;9.434;2024-01-30T05:06:03;2.60;78.50
16663;DHT22;8445;51.270;9.434;2024-01-30T05:08:33;2.50;78.50
16663;DHT22;8445;51.270;9.434;2024-01-30T05:11:04;2.60;78.50
16663;DHT22;8445;51.270;9.434;2024-01-30T05:13:33;2.60;78.50
16663;DHT22;8445;51.270;9.434;2024-01-30T05:16:02;2.60;78.50
16663;DHT22;8445;51.270;9.434;2024-01-30T05:18:32;2.60;78.50
16663;DHT22;8445;51.270;9.434;2024-01-30T05:20:59;2.60;78.50
16663;DHT22;8445;51.270;9.434;2024-01-30T05:23:28;2.60;78.40
16663;DHT22;8445;51.270;9.434;2024-01-30T05:25:58;2.60;78.40
16663;DHT22;8445;51.270;9.434;2024-01-30T05:28:27;2.50;78.30
16663;DHT22;8445;51.270;9.434;2024-01-30T05:30:56;2.60;78.30
16663;DHT22;8445;51.270;9.434;2024-01-30T05:33:25;2.50;78.30
16663;DHT22;8445;51.270;9.434;2024-01-30T05:35:52;2.50;78.50
16663;DHT22;8445;51.270;9.434;2024-01-30T05:38:21;2.50;78.60
16663;DHT22;8445;51.270;9.434;2024-01-30T05:40:49;2.50;78.50
16663;DHT22;8445;51.270;9.434;2024-01-30T05:43:17;2.50;78.50
16663;DHT22;8445;51.270;9.434;2024-01-30T05:45:48;2.40;78.20
16663;DHT22;8445;51.270;9.434;2024-01-30T05:48:16;2.40;78.30
16663;DHT22;8445;51.270;9.434;2024-01-30T05:50:43;2.40;78.30
16663;DHT22;8445;51.270;9.434;2024-01-30T05:53:14;2.40;78.40
16663;DHT22;8445;51.270;9.434;2024-01-30T05:55:40;2.30;78.40
16663;DHT22;8445;51.270;9.434;2024-01-30T05:58:06;2.30;78.40
16663;DHT22;8445;51.270;9.434;2024-01-30T06:00:37;2.30;78.40
16663;DHT22;8445;51.270;9.434;2024-01-30T06:03:05;2.30;78.40
16663;DHT22;8445;51.270;9.434;2024-01-30T06:05:34;2.30;78.40
16663;DHT22;8445;51.270;9.434;2024-01-30T06:08:00;2.20;78.30
16663;DHT22;8445;51.270;9.434;2024-01-30T06:10:49;2.20;78.40
16663;DHT22;8445;51.270;9.434;2024-01-30T06:13:16;2.20;78.40
16663;DHT22;8445;51.270;9.434;2024-01-30T06:15:42;2.20;78.40
16663;DHT22;8445;51.270;9.434;2024-01-30T06:18:08;2.20;78.50
16663;DHT22;8445;51.270;9.434;2024-01-30T06:20:34;2.20;78.50
16663;DHT22;8445;51.270;9.434;2024-01-30T06:23:00;2.20;78.40
16663;DHT22;8445;51.270;9.434;2024-01-30T06:25:26;2.10;78.60
16663;DHT22;8445;51.270;9.434;2024-01-30T06:27:52;2.10;78.70
16663;DHT22;8445;51.270;9.434;2024-01-30T06:30:18;2.10;78.70
16663;DHT22;8445;51.270;9.434;2024-01-30T06:32:44;2.10;78.80
16663;DHT22;8445;51.270;9.434;2024-01-30T06:35:10;2.10;78.70
16663;DHT22;8445;51.270;9.434;2024-01-30T06:37:38;2.10;78.80
16663;DHT22;8445;51.270;9.434;2024-01-30T06:40:04;2.10;78.70
16663;DHT22;8445;51.270;9.434;2024-01-30T06:42:31;2.10;78.80
16663;DHT22;8445;51.270;9.434;2024-01-30T06:44:57;2.10;79.00
16663;DHT22;8445;51.270;9.434;2024-01-30T06:47:23;2.10;79.00
16663;DHT22;8445;51.270;9.434;2024-01-30T06:49:49;2.10;79.00
16663;DHT22;8445;51.270;9.434;2024-01-30T06:52:14;2.10;78.80
16663;DHT22;8445;51.270;9.434;2024-01-30T06:54:40;2.10;78.70
16663;DHT22;8445;51.270;9.434;2024-01-30T06:57:06;2.10;78.70
16663;DHT22;8445;51.270;9.434;2024-01-30T06:59:37;2.10;78.60
16663;DHT22;8445;51.270;9.434;2024-01-30T07:02:09;2.10;78.50
16663;DHT22;8445;51.270;9.434;2024-01-30T07:04:36;2.10;78.60
16663;DHT22;8445;51.270;9.434;2024-01-30T07:07:03;2.20;78.50
16663;DHT22;8445;51.270;9.434;2024-01-30T07:09:31;2.20;78.70
16663;DHT22;8445;51.270;9.434;2024-01-30T07:11:57;2.20;78.70
16663;DHT22;8445;51.270;9.434;2024-01-30T07:14:25;2.20;78.60
16663;DHT22;8445;51.270;9.434;2024-01-30T07:16:51;2.20;78.50
16663;DHT22;8445;51.270;9.434;2024-01-30T07:19:17;2.20;78.40
16663;DHT22;8445;51.270;9.434;2024-01-30T07:21:43;2.20;78.30
16663;DHT22;8445;51.270;9.434;2024-01-30T07:24:09;2.20;78.20
16663;DHT22;8445;51.270;9.434;2024-01-30T07:26:35;2.20;78.30
16663;DHT22;8445;51.270;9.434;2024-01-30T07:29:01;2.30;78.20
16663;DHT22;8445;51.270;9.434;2024-01-30T07:31:27;2.30;78.30
16663;DHT22;8445;51.270;9.434;2024-01-30T07:33:53;2.30;78.20
16663;DHT22;8445;51.270;9.434;2024-01-30T07:36:20;2.40;78.20
16663;DHT22;8445;51.270;9.434;2024-01-30T07:38:46;2.40;78.20
16663;DHT22;8445;51.270;9.434;2024-01-30T07:41:12;2.50;78.20
16663;DHT22;8445;51.270;9.434;2024-01-30T07:43:39;2.50;78.10
16663;DHT22;8445;51.270;9.434;2024-01-30T07:46:11;2.50;78.10
16663;DHT22;8445;51.270;9.434;2024-01-30T07:48:36;2.60;78.00
16663;DHT22;8445;51.270;9.434;2024-01-30T07:51:02;2.70;78.00
16663;DHT22;8445;51.270;9.434;2024-01-30T07:53:29;2.70;78.00
16663;DHT22;8445;51.270;9.434;2024-01-30T07:55:55;2.80;77.90
16663;DHT22;8445;51.270;9.434;2024-01-30T07:58:21;2.90;77.80
16663;DHT22;8445;51.270;9.434;2024-01-30T08:00:47;2.90;77.80
16663;DHT22;8445;51.270;9.434;2024-01-30T08:03:13;3.00;77.80
16663;DHT22;8445;51.270;9.434;2024-01-30T08:05:42;3.10;77.60
16663;DHT22;8445;51.270;9.434;2024-01-30T08:08:07;3.10;77.50
16663;DHT22;8445;51.270;9.434;2024-01-30T08:10:33;3.20;77.40
16663;DHT22;8445;51.270;9.434;2024-01-30T08:12:59;3.30;77.30
16663;DHT22;8445;51.270;9.434;2024-01-30T08:15:25;3.30;77.20
16663;DHT22;8445;51.270;9.434;2024-01-30T08:17:51;3.40;77.20
16663;DHT22;8445;51.270;9.434;2024-01-30T08:20:21;3.50;77.10
16663;DHT22;8445;51.270;9.434;2024-01-30T08:22:47;3.50;77.10
16663;DHT22;8445;51.270;9.434;2024-01-30T08:25:13;3.60;77.00
16663;DHT22;8445;51.270;9.434;2024-01-30T08:27:41;3.70;77.00
16663;DHT22;8445;51.270;9.434;2024-01-30T08:30:12;3.70;77.00
16663;DHT22;8445;51.270;9.434;2024-01-30T08:32:38;3.90;77.00
16663;DHT22;8445;51.270;9.434;2024-01-30T08:35:07;3.90;76.90
16663;DHT22;8445;51.270;9.434;2024-01-30T08:37:41;4.10;76.70
16663;DHT22;8445;51.270;9.434;2024-01-30T08:40:12;4.20;76.70
16663;DHT22;8445;51.270;9.434;2024-01-30T08:42:41;4.30;76.70
16663;DHT22;8445;51.270;9.434;2024-01-30T08:45:26;4.40;76.60
16663;DHT22;8445;51.270;9.434;2024-01-30T08:47:52;4.60;76.30
16663;DHT22;8445;51.270;9.434;2024-01-30T08:50:24;4.70;76.10
16663;DHT22;8445;51.270;9.434;2024-01-30T08:52:50;4.90;76.10
16663;DHT22;8445;51.270;9.434;2024-01-30T08:55:22;5.00;75.80
16663;DHT22;8445;51.270;9.434;2024-01-30T08:57:48;5.10;75.70
16663;DHT22;8445;51.270;9.434;2024-01-30T09:00:14;5.30;75.60
16663;DHT22;8445;51.270;9.434;2024-01-30T09:02:44;5.40;75.30
16663;DHT22;8445;51.270;9.434;2024-01-30T09:05:10;5.50;75.10
16663;DHT22;8445;51.270;9.434;2024-01-30T09:07:37;5.60;74.90
16663;DHT22;8445;51.270;9.434;2024-01-30T09:10:15;5.70;74.00
16663;DHT22;8445;51.270;9.434;2024-01-30T09:12:47;5.90;73.40
16663;DHT22;8445;51.270;9.434;2024-01-30T09:15:21;5.90;73.40
16663;DHT22;8445;51.270;9.434;2024-01-30T09:17:53;6.00;73.50
16663;DHT22;8445;51.270;9.434;2024-01-30T09:20:20;6.20;73.60
16663;DHT22;8445;51.270;9.434;2024-01-30T09:22:50;6.30;73.20
16663;DHT22;8445;51.270;9.434;2024-01-30T09:25:18;6.40;72.70
16663;DHT22;8445;51.270;9.434;2024-01-30T09:27:48;6.50;72.10
16663;DHT22;8445;51.270;9.434;2024-01-30T09:30:15;6.60;72.00
16663;DHT22;8445;51.270;9.434;2024-01-30T09:32:42;6.70;71.80
16663;DHT22;8445;51.270;9.434;2024-01-30T09:35:09;6.70;71.60
16663;DHT22;8445;51.270;9.434;2024-01-30T09:37:35;6.80;71.40
16663;DHT22;8445;51.270;9.434;2024-01-30T09:40:01;6.80;71.40
16663;DHT22;8445;51.270;9.434;2024-01-30T09:42:35;6.80;71.30
16663;DHT22;8445;51.270;9.434;2024-01-30T09:45:05;6.90;71.00
16663;DHT22;8445;51.270;9.434;2024-01-30T09:47:42;7.00;70.90
16663;DHT22;8445;51.270;9.434;2024-01-30T09:50:11;7.00;70.70
16663;DHT22;8445;51.270;9.434;2024-01-30T09:52:39;7.00;70.80
16663;DHT22;8445;51.270;9.434;2024-01-30T09:55:07;7.10;70.70
16663;DHT22;8445;51.270;9.434;2024-01-30T09:57:34;7.20;70.50
16663;DHT22;8445;51.270;9.434;2024-01-30T10:00:02;7.20;70.70
16663;DHT22;8445;51.270;9.434;2024-01-30T10:02:40;7.20;70.50
16663;DHT22;8445;51.270;9.434;2024-01-30T10:05:08;7.40;70.40
16663;DHT22;8445;51.270;9.434;2024-01-30T10:07:34;7.50;70.00
16663;DHT22;8445;51.270;9.434;2024-01-30T10:10:00;7.50;69.90
16663;DHT22;8445;51.270;9.434;2024-01-30T10:12:26;7.60;69.60
16663;DHT22;8445;51.270;9.434;2024-01-30T10:14:52;7.60;69.70
16663;DHT22;8445;51.270;9.434;2024-01-30T10:17:19;7.80;69.70
16663;DHT22;8445;51.270;9.434;2024-01-30T10:19:50;7.80;69.60
16663;DHT22;8445;51.270;9.434;2024-01-30T10:22:17;8.00;69.30
16663;DHT22;8445;51.270;9.434;2024-01-30T10:24:43;8.00;68.70
16663;DHT22;8445;51.270;9.434;2024-01-30T10:27:11;8.10;68.60
16663;DHT22;8445;51.270;9.434;2024-01-30T10:29:37;8.20;68.50
16663;DHT22;8445;51.270;9.434;2024-01-30T10:32:06;8.20;68.20
16663;DHT22;8445;51.270;9.434;2024-01-30T10:34:33;8.30;68.00
16663;DHT22;8445;51.270;9.434;2024-01-30T10:37:10;8.30;67.90
16663;DHT22;8445;51.270;9.434;2024-01-30T10:39:44;8.40;67.70
16663;DHT22;8445;51.270;9.434;2024-01-30T10:42:26;8.40;67.50
16663;DHT22;8445;51.270;9.434;2024-01-30T10:45:06;8.50;67.50
16663;DHT22;8445;51.270;9.434;2024-01-30T10:48:07;8.50;67.40
16663;DHT22;8445;51.270;9.434;2024-01-30T10:50:40;8.70;67.70
16663;DHT22;8445;51.270;9.434;2024-01-30T10:53:09;8.90;66.90
16663;DHT22;8445;51.270;9.434;2024-01-30T10:55:37;9.00;66.60
16663;DHT22;8445;51.270;9.434;2024-01-30T10:58:06;9.00;66.30
16663;DHT22;8445;51.270;9.434;2024-01-30T11:00:32;9.00;66.30
16663;DHT22;8445;51.270;9.434;2024-01-30T11:03:00;9.10;66.10
16663;DHT22;8445;51.270;9.434;2024-01-30T11:05:28;9.10;66.10
16663;DHT22;8445;51.270;9.434;2024-01-30T11:07:56;9.20;65.70
16663;DHT22;8445;51.270;9.434;2024-01-30T11:10:24;9.20;65.40
16663;DHT22;8445;51.270;9.434;2024-01-30T11:12:51;9.30;65.10
16663;DHT22;8445;51.270;9.434;2024-01-30T11:15:18;9.30;65.10
16663;DHT22;8445;51.270;9.434;2024-01-30T11:20:16;9.40;64.70
16663;DHT22;8445;51.270;9.434;2024-01-30T11:22:54;9.40;64.60
16663;DHT22;8445;51.270;9.434;2024-01-30T11:25:23;9.40;64.50
16663;DHT22;8445;51.270;9.434;2024-01-30T11:27:53;9.40;64.40
16663;DHT22;8445;51.270;9.434;2024-01-30T11:30:29;9.40;64.50
16663;DHT22;8445;51.270;9.434;2024-01-30T11:35:39;9.40;64.40
16663;DHT22;8445;51.270;9.434;2024-01-30T11:38:13;9.40;64.40
16663;DHT22;8445;51.270;9.434;2024-01-30T11:40:40;9.40;64.40
16663;DHT22;8445;51.270;9.434;2024-01-30T11:43:07;9.40;64.60
16663;DHT22;8445;51.270;9.434;2024-01-30T11:45:36;9.50;64.40
16663;DHT22;8445;51.270;9.434;2024-01-30T11:48:06;9.50;64.60
16663;DHT22;8445;51.270;9.434;2024-01-30T11:50:36;9.60;64.60
16663;DHT22;8445;51.270;9.434;2024-01-30T11:53:08;9.70;64.40
16663;DHT22;8445;51.270;9.434;2024-01-30T11:55:35;9.80;64.20
16663;DHT22;8445;51.270;9.434;2024-01-30T11:58:03;9.90;63.90
16663;DHT22;8445;51.270;9.434;2024-01-30T12:00:32;10.00;63.70
16663;DHT22;8445;51.270;9.434;2024-01-30T12:03:04;10.00;64.00
16663;DHT22;8445;51.270;9.434;2024-01-30T12:05:34;10.00;63.70
16663;DHT22;8445;51.270;9.434;2024-01-30T12:08:15;10.00;63.80
16663;DHT22;8445;51.270;9.434;2024-01-30T12:10:43;10.00;63.60
16663;DHT22;8445;51.270;9.434;2024-01-30T12:13:12;10.10;63.50
16663;DHT22;8445;51.270;9.434;2024-01-30T12:15:42;10.10;63.80
16663;DHT22;8445;51.270;9.434;2024-01-30T12:18:09;10.20;64.00
16663;DHT22;8445;51.270;9.434;2024-01-30T12:20:35;10.30;63.60
16663;DHT22;8445;51.270;9.434;2024-01-30T12:23:02;10.40;63.90
16663;DHT22;8445;51.270;9.434;2024-01-30T12:25:28;10.50;63.80
16663;DHT22;8445;51.270;9.434;2024-01-30T12:27:55;10.60;63.20
16663;DHT22;8445;51.270;9.434;2024-01-30T12:30:22;10.70;63.00
16663;DHT22;8445;51.270;9.434;2024-01-30T12:32:50;10.70;62.70
16663;DHT22;8445;51.270;9.434;2024-01-30T12:35:18;10.80;62.50
16663;DHT22;8445;51.270;9.434;2024-01-30T12:37:50;10.80;62.50
16663;DHT22;8445;51.270;9.434;2024-01-30T12:40:20;10.80;62.50
16663;DHT22;8445;51.270;9.434;2024-01-30T12:42:47;10.80;62.00
16663;DHT22;8445;51.270;9.434;2024-01-30T12:45:16;10.80;62.20
16663;DHT22;8445;51.270;9.434;2024-01-30T12:47:51;10.80;62.50
16663;DHT22;8445;51.270;9.434;2024-01-30T12:50:18;10.80;62.60
16663;DHT22;8445;51.270;9.434;2024-01-30T12:52:45;10.80;62.70
16663;DHT22;8445;51.270;9.434;2024-01-30T12:55:11;10.80;62.80
16663;DHT22;8445;51.270;9.434;2024-01-30T12:57:39;10.80;62.50
16663;DHT22;8445;51.270;9.434;2024-01-30T13:00:06;10.80;62.20
16663;DHT22;8445;51.270;9.434;2024-01-30T13:02:35;10.90;62.00
16663;DHT22;8445;51.270;9.434;2024-01-30T13:05:03;10.90;62.20
16663;DHT22;8445;51.270;9.434;2024-01-30T13:07:30;11.00;62.30
16663;DHT22;8445;51.270;9.434;2024-01-30T13:09:57;11.00;62.40
16663;DHT22;8445;51.270;9.434;2024-01-30T13:12:32;11.10;62.30
16663;DHT22;8445;51.270;9.434;2024-01-30T13:15:01;11.10;62.20
16663;DHT22;8445;51.270;9.434;2024-01-30T13:17:47;11.10;62.10
16663;DHT22;8445;51.270;9.434;2024-01-30T13:20:16;11.10;61.80
16663;DHT22;8445;51.270;9.434;2024-01-30T13:22:45;11.10;61.90
16663;DHT22;8445;51.270;9.434;2024-01-30T13:25:12;11.10;61.60
16663;DHT22;8445;51.270;9.434;2024-01-30T13:27:38;11.10;61.70
16663;DHT22;8445;51.270;9.434;2024-01-30T13:30:07;11.10;61.80
16663;DHT22;8445;51.270;9.434;2024-01-30T13:32:35;11.10;61.80
16663;DHT22;8445;51.270;9.434;2024-01-30T13:35:04;11.10;61.60
16663;DHT22;8445;51.270;9.434;2024-01-30T13:37:30;11.00;61.60
16663;DHT22;8445;51.270;9.434;2024-01-30T13:39:57;11.00;61.30
16663;DHT22;8445;51.270;9.434;2024-01-30T13:42:23;11.00;61.40
16663;DHT22;8445;51.270;9.434;2024-01-30T13:44:49;10.90;61.50
16663;DHT22;8445;51.270;9.434;2024-01-30T13:47:16;10.80;61.60
16663;DHT22;8445;51.270;9.434;2024-01-30T13:49:43;10.80;61.80
16663;DHT22;8445;51.270;9.434;2024-01-30T13:52:09;10.70;61.80
16663;DHT22;8445;51.270;9.434;2024-01-30T13:54:45;10.70;62.00
16663;DHT22;8445;51.270;9.434;2024-01-30T13:57:11;10.70;62.00
16663;DHT22;8445;51.270;9.434;2024-01-30T13:59:38;10.70;62.20
16663;DHT22;8445;51.270;9.434;2024-01-30T14:02:04;10.70;62.50
16663;DHT22;8445;51.270;9.434;2024-01-30T14:04:31;10.70;62.40
16663;DHT22;8445;51.270;9.434;2024-01-30T14:06:57;10.80;62.40
16663;DHT22;8445;51.270;9.434;2024-01-30T14:09:26;10.80;62.50
16663;DHT22;8445;51.270;9.434;2024-01-30T14:11:52;10.70;62.50
16663;DHT22;8445;51.270;9.434;2024-01-30T14:14:17;10.70;62.50
16663;DHT22;8445;51.270;9.434;2024-01-30T14:16:43;10.70;62.60
16663;DHT22;8445;51.270;9.434;2024-01-30T14:19:09;10.70;62.70
16663;DHT22;8445;51.270;9.434;2024-01-30T14:21:35;10.60;62.80
16663;DHT22;8445;51.270;9.434;2024-01-30T14:24:03;10.60;63.00
16663;DHT22;8445;51.270;9.434;2024-01-30T14:26:29;10.50;63.00
16663;DHT22;8445;51.270;9.434;2024-01-30T14:28:54;10.50;63.00
16663;DHT22;8445;51.270;9.434;2024-01-30T14:31:21;10.40;63.10
16663;DHT22;8445;51.270;9.434;2024-01-30T14:33:48;10.40;63.20
16663;DHT22;8445;51.270;9.434;2024-01-30T14:36:18;10.40;63.30
16663;DHT22;8445;51.270;9.434;2024-01-30T14:38:46;10.40;63.40
16663;DHT22;8445;51.270;9.434;2024-01-30T14:41:15;10.30;63.40
16663;DHT22;8445;51.270;9.434;2024-01-30T14:43:42;10.30;63.50
16663;DHT22;8445;51.270;9.434;2024-01-30T14:46:09;10.30;63.70
16663;DHT22;8445;51.270;9.434;2024-01-30T14:48:36;10.20;63.70
16663;DHT22;8445;51.270;9.434;2024-01-30T14:51:03;10.20;63.70
16663;DHT22;8445;51.270;9.434;2024-01-30T14:53:30;10.10;63.90
16663;DHT22;8445;51.270;9.434;2024-01-30T14:55:57;10.10;64.00
16663;DHT22;8445;51.270;9.434;2024-01-30T14:58:24;10.10;64.10
16663;DHT22;8445;51.270;9.434;2024-01-30T15:00:52;10.10;64.10
16663;DHT22;8445;51.270;9.434;2024-01-30T15:03:22;10.10;64.30
16663;DHT22;8445;51.270;9.434;2024-01-30T15:05:49;10.10;64.50
16663;DHT22;8445;51.270;9.434;2024-01-30T15:08:17;10.00;64.50
16663;DHT22;8445;51.270;9.434;2024-01-30T15:10:43;10.00;64.50
16663;DHT22;8445;51.270;9.434;2024-01-30T15:13:09;10.00;64.60
16663;DHT22;8445;51.270;9.434;2024-01-30T15:15:37;10.00;64.70
16663;DHT22;8445;51.270;9.434;2024-01-30T15:18:04;9.80;64.80
16663;DHT22;8445;51.270;9.434;2024-01-30T15:20:30;9.80;65.00
16663;DHT22;8445;51.270;9.434;2024-01-30T15:22:57;9.70;65.00
16663;DHT22;8445;51.270;9.434;2024-01-30T15:25:23;9.60;65.30
16663;DHT22;8445;51.270;9.434;2024-01-30T15:27:49;9.50;65.50
16663;DHT22;8445;51.270;9.434;2024-01-30T15:30:14;9.50;65.60
16663;DHT22;8445;51.270;9.434;2024-01-30T15:32:40;9.40;65.80
16663;DHT22;8445;51.270;9.434;2024-01-30T15:35:06;9.40;66.10
16663;DHT22;8445;51.270;9.434;2024-01-30T15:37:34;9.30;66.30
16663;DHT22;8445;51.270;9.434;2024-01-30T15:39:59;9.20;66.50
16663;DHT22;8445;51.270;9.434;2024-01-30T15:42:26;9.20;66.80
16663;DHT22;8445;51.270;9.434;2024-01-30T15:44:54;9.20;67.00
16663;DHT22;8445;51.270;9.434;2024-01-30T15:47:21;9.20;67.10
16663;DHT22;8445;51.270;9.434;2024-01-30T15:49:49;9.10;67.10
16663;DHT22;8445;51.270;9.434;2024-01-30T15:52:15;9.10;67.20
16663;DHT22;8445;51.270;9.434;2024-01-30T15:54:46;9.10;67.30
16663;DHT22;8445;51.270;9.434;2024-01-30T15:57:14;9.10;67.30
16663;DHT22;8445;51.270;9.434;2024-01-30T15:59:41;9.00;67.50
16663;DHT22;8445;51.270;9.434;2024-01-30T16:02:08;9.00;67.70
16663;DHT22;8445;51.270;9.434;2024-01-30T16:04:37;9.00;67.80
16663;DHT22;8445;51.270;9.434;2024-01-30T16:07:14;9.00;67.80
16663;DHT22;8445;51.270;9.434;2024-01-30T16:09:40;8.90;67.90